createdAt,value
2018-11-02T00:01:04.122Z,2.20
2018-11-02T00:03:32.542Z,1.93
2018-11-02T00:06:01.012Z,2.13
2018-11-02T00:08:29.338Z,1.60
2018-11-02T00:10:57.746Z,1.77
2018-11-02T00:13:26.116Z,1.73
2018-11-02T00:15:54.608Z,1.67
2018-11-02T00:18:22.984Z,2.30
2018-11-02T00:20:51.541Z,1.50
2018-11-02T00:23:19.946Z,1.73
2018-11-02T00:25:48.293Z,2.23
2018-11-02T00:28:16.669Z,2.50
2018-11-02T00:30:44.958Z,1.87
2018-11-02T00:33:13.348Z,2.00
2018-11-02T00:35:41.708Z,1.67
2018-11-02T00:38:10.522Z,1.90
2018-11-02T00:40:39.069Z,1.80
2018-11-02T00:43:07.465Z,1.47
2018-11-02T00:45:35.757Z,1.70
2018-11-02T00:48:04.188Z,1.70
2018-11-02T00:50:32.538Z,1.40
2018-11-02T00:53:01.411Z,1.80
2018-11-02T00:55:29.816Z,1.43
2018-11-02T00:57:58.143Z,1.90
2018-11-02T01:00:26.498Z,2.20
2018-11-02T01:02:54.824Z,1.03
2018-11-02T01:05:23.190Z,1.13
2018-11-02T01:07:51.531Z,1.93
2018-11-02T01:10:19.875Z,1.73
2018-11-02T01:12:48.427Z,1.27
2018-11-02T01:15:16.762Z,1.17
2018-11-02T01:17:45.569Z,1.20
2018-11-02T01:20:14.017Z,1.30
2018-11-02T01:22:42.562Z,1.30
2018-11-02T01:25:10.894Z,1.30
2018-11-02T01:27:39.224Z,1.00
2018-11-02T01:30:07.616Z,1.33
2018-11-02T01:32:35.936Z,1.27
2018-11-02T01:35:04.530Z,1.30
2018-11-02T01:37:32.893Z,1.07
2018-11-02T01:40:01.165Z,1.20
2018-11-02T01:42:29.488Z,1.13
2018-11-02T01:44:57.991Z,1.27
2018-11-02T01:47:26.452Z,1.00
2018-11-02T01:49:54.753Z,1.23
2018-11-02T01:52:23.122Z,1.20
2018-11-02T01:54:51.540Z,1.00
2018-11-02T01:57:19.909Z,1.03
2018-11-02T01:59:48.289Z,1.07
2018-11-02T02:02:16.657Z,1.00
2018-11-02T02:04:45.098Z,1.17
2018-11-02T02:07:13.517Z,1.53
2018-11-02T02:09:42.087Z,1.27
2018-11-02T02:12:10.435Z,0.93
2018-11-02T02:14:38.897Z,1.10
2018-11-02T02:17:07.292Z,1.00
2018-11-02T02:19:35.757Z,1.07
2018-11-02T02:22:04.127Z,1.03
2018-11-02T02:24:32.493Z,0.90
2018-11-02T02:27:00.788Z,0.70
2018-11-02T02:29:29.067Z,0.70
2018-11-02T02:31:57.493Z,0.80
2018-11-02T02:34:26.059Z,0.70
2018-11-02T02:36:54.528Z,0.90
2018-11-02T02:39:22.931Z,0.70
2018-11-02T02:41:51.260Z,1.23
2018-11-02T02:44:19.620Z,0.93
2018-11-02T02:46:47.902Z,1.00
2018-11-02T02:49:18.315Z,0.70
2018-11-02T02:51:46.682Z,0.83
2018-11-02T02:54:15.078Z,1.03
2018-11-02T02:56:43.466Z,0.90
2018-11-02T02:59:11.795Z,0.67
2018-11-02T03:01:40.282Z,0.83
2018-11-02T03:04:08.566Z,0.93
2018-11-02T03:06:36.963Z,0.70
2018-11-02T03:09:07.329Z,0.63
2018-11-02T03:11:35.667Z,0.70
2018-11-02T03:14:03.981Z,0.63
2018-11-02T03:16:32.351Z,0.80
2018-11-02T03:19:00.663Z,0.60
2018-11-02T03:21:29.310Z,0.80
2018-11-02T03:23:57.615Z,0.50
2018-11-02T03:26:25.960Z,0.60
2018-11-02T03:28:54.307Z,0.60
2018-11-02T03:31:22.616Z,0.70
2018-11-02T03:33:51.030Z,0.80
2018-11-02T03:36:19.461Z,0.60
2018-11-02T03:38:47.778Z,0.63
2018-11-02T03:41:16.234Z,0.60
2018-11-02T03:43:44.592Z,0.80
2018-11-02T03:46:12.955Z,0.83
2018-11-02T03:48:41.260Z,1.00
2018-11-02T03:51:09.551Z,0.70
2018-11-02T03:53:37.878Z,1.10
2018-11-02T03:56:06.702Z,0.80
2018-11-02T03:58:35.237Z,0.87
2018-11-02T04:01:03.541Z,0.60
2018-11-02T04:03:31.943Z,0.50
2018-11-02T04:06:00.269Z,0.70
2018-11-02T04:08:28.616Z,0.50
2018-11-02T04:10:56.929Z,1.00
2018-11-02T04:13:25.263Z,0.50
2018-11-02T04:15:53.575Z,0.50
2018-11-02T04:18:21.993Z,1.00
2018-11-02T04:20:50.343Z,0.60
2018-11-02T04:23:18.746Z,0.60
2018-11-02T04:25:47.038Z,0.60
2018-11-02T04:28:15.463Z,0.60
2018-11-02T04:30:43.868Z,0.67
2018-11-02T04:33:12.183Z,0.70
2018-11-02T04:35:40.548Z,0.80
2018-11-02T04:38:08.905Z,0.50
2018-11-02T04:40:37.252Z,0.50
2018-11-02T04:43:05.997Z,0.50
2018-11-02T04:45:38.262Z,0.40
2018-11-02T04:48:08.155Z,0.50
2018-11-02T04:50:36.829Z,4.47
